createdAt,value
2018-11-23T00:02:03.977Z,6.23
2018-11-23T00:04:33.613Z,6.23
2018-11-23T00:07:03.927Z,6.26
2018-11-23T00:09:33.642Z,6.28
2018-11-23T00:12:03.657Z,6.30
2018-11-23T00:14:33.443Z,6.31
2018-11-23T00:17:03.907Z,6.27
2018-11-23T00:19:33.791Z,6.30
2018-11-23T00:22:04.084Z,6.27
2018-11-23T00:24:34.432Z,6.22
2018-11-23T00:27:04.336Z,5.37
2018-11-23T00:29:35.510Z,6.15
2018-11-23T00:32:06.473Z,6.13
2018-11-23T00:34:37.283Z,6.07
2018-11-23T00:37:07.744Z,6.04
2018-11-23T00:39:38.705Z,5.11
2018-11-23T00:42:09.506Z,6.03
2018-11-23T00:44:39.902Z,6.04
2018-11-23T00:47:09.783Z,6.06
2018-11-23T00:49:40.069Z,6.07
2018-11-23T00:52:10.277Z,6.13
2018-11-23T00:54:40.565Z,6.16
2018-11-23T00:57:10.313Z,6.14
2018-11-23T00:59:40.363Z,6.11
2018-11-23T01:02:11.662Z,6.11
2018-11-23T01:04:41.536Z,6.12
2018-11-23T01:07:11.497Z,6.13
2018-11-23T01:09:42.122Z,6.11
2018-11-23T01:12:13.680Z,6.09
2018-11-23T01:14:43.652Z,6.11
2018-11-23T01:17:13.755Z,6.12
2018-11-23T01:19:43.804Z,6.13
2018-11-23T01:22:14.117Z,6.12
2018-11-23T01:24:43.974Z,6.11
2018-11-23T01:27:13.598Z,6.10
2018-11-23T01:29:43.574Z,6.11
2018-11-23T01:32:13.582Z,6.12
2018-11-23T01:34:43.391Z,6.09
2018-11-23T01:37:13.395Z,6.10
2018-11-23T01:39:43.542Z,6.13
2018-11-23T01:42:14.528Z,6.14
2018-11-23T01:44:50.712Z,6.15
2018-11-23T01:47:22.598Z,6.15
2018-11-23T01:49:53.467Z,6.17
2018-11-23T01:52:23.139Z,6.18
2018-11-23T01:54:54.204Z,6.18
2018-11-23T01:57:23.704Z,6.16
2018-11-23T01:59:53.677Z,6.12
2018-11-23T02:02:23.788Z,5.44
2018-11-23T02:04:53.830Z,6.05
2018-11-23T02:07:24.799Z,6.08
2018-11-23T02:09:57.015Z,5.43
2018-11-23T02:12:26.742Z,6.04
2018-11-23T02:14:56.490Z,6.00
2018-11-23T02:17:27.205Z,5.95
2018-11-23T02:19:58.458Z,5.88
2018-11-23T02:22:29.520Z,5.82
2018-11-23T02:24:59.444Z,5.75
2018-11-23T02:27:29.363Z,5.70
2018-11-23T02:30:00.281Z,5.69
2018-11-23T02:32:31.829Z,5.65
2018-11-23T02:35:01.716Z,5.66
2018-11-23T02:37:31.875Z,5.65
2018-11-23T02:40:02.064Z,5.62
2018-11-23T02:42:31.839Z,5.60
2018-11-23T02:45:02.014Z,5.59
2018-11-23T02:47:32.075Z,5.58
2018-11-23T02:50:01.787Z,5.50
2018-11-23T02:52:32.196Z,5.42
2018-11-23T02:55:01.786Z,5.40
2018-11-23T02:57:31.669Z,5.37
2018-11-23T03:00:03.311Z,5.38
2018-11-23T03:02:32.959Z,5.34
2018-11-23T03:05:03.202Z,5.33
2018-11-23T03:07:32.981Z,5.32
2018-11-23T03:10:03.386Z,5.34
2018-11-23T03:12:33.373Z,5.33
2018-11-23T03:15:03.331Z,4.88
2018-11-23T03:17:33.738Z,5.36
2018-11-23T03:20:04.106Z,5.36
2018-11-23T03:22:34.148Z,5.36
2018-11-23T03:25:04.716Z,5.40
2018-11-23T03:27:34.656Z,5.42
2018-11-23T03:30:05.089Z,5.40
2018-11-23T03:32:35.140Z,5.39
2018-11-23T03:35:05.091Z,5.41
2018-11-23T03:37:34.854Z,5.43
2018-11-23T03:40:05.335Z,5.43
2018-11-23T03:42:35.098Z,5.40
2018-11-23T03:45:05.592Z,5.38
2018-11-23T03:47:35.379Z,5.41
2018-11-23T03:50:05.407Z,5.43
2018-11-23T03:52:35.444Z,5.42
2018-11-23T03:55:05.734Z,5.38
2018-11-23T03:57:36.358Z,5.37
2018-11-23T04:00:17.155Z,5.31
2018-11-23T04:02:41.924Z,5.19
2018-11-23T04:05:11.988Z,5.11
2018-11-23T04:07:42.468Z,5.03
2018-11-23T04:10:13.671Z,4.97
2018-11-23T04:12:43.871Z,4.93
2018-11-23T04:15:14.228Z,4.84
2018-11-23T04:17:45.531Z,4.79
2018-11-23T04:20:17.920Z,4.71
2018-11-23T04:22:47.685Z,4.70
2018-11-23T04:25:18.350Z,4.67
2018-11-23T04:27:48.094Z,4.65
2018-11-23T04:30:18.717Z,4.60
2018-11-23T04:32:49.560Z,4.59
2018-11-23T04:35:20.495Z,4.56
2018-11-23T04:37:50.818Z,3.94
2018-11-23T04:40:20.783Z,4.62
2018-11-23T04:42:50.605Z,4.61
2018-11-23T04:45:20.276Z,4.64
2018-11-23T04:47:50.087Z,4.64
2018-11-23T04:50:21.040Z,4.64
2018-11-23T04:52:50.522Z,4.66
2018-11-23T04:55:34.380Z,4.67
2018-11-23T04:58:04.034Z,4.67
2018-11-23T05:00:33.670Z,4.69
2018-11-23T05:03:04.053Z,4.56
2018-11-23T05:05:33.933Z,4.68
2018-11-23T05:08:06.740Z,4.65
2018-11-23T05:10:41.496Z,4.65
2018-11-23T05:13:23.235Z,4.66
2018-11-23T05:15:53.013Z,4.65
2018-11-23T05:18:22.864Z,4.64
2018-11-23T05:20:57.233Z,4.63
2018-11-23T05:23:27.857Z,4.61
2018-11-23T05:25:57.758Z,4.55
2018-11-23T05:28:29.567Z,3.82
2018-11-23T05:31:00.635Z,4.42
2018-11-23T05:33:31.178Z,4.41
2018-11-23T05:36:00.864Z,4.42
2018-11-23T05:38:31.571Z,4.40
2018-11-23T05:41:02.263Z,4.38
2018-11-23T05:43:32.191Z,4.33
2018-11-23T05:46:02.966Z,4.33
2018-11-23T05:48:33.584Z,4.32
2018-11-23T05:51:05.539Z,4.27
2018-11-23T05:53:35.608Z,4.19
2018-11-23T05:56:06.206Z,4.16
2018-11-23T05:58:38.011Z,4.06
2018-11-23T06:01:07.979Z,3.88
2018-11-23T06:03:37.843Z,3.76
2018-11-23T06:06:08.525Z,3.66
2018-11-23T06:08:38.358Z,3.48
2018-11-23T06:11:08.605Z,3.33
2018-11-23T06:13:39.748Z,3.24
2018-11-23T06:16:09.659Z,3.15
2018-11-23T06:18:39.515Z,2.96
2018-11-23T06:21:10.759Z,2.77
2018-11-23T06:23:40.707Z,2.72
2018-11-23T06:26:25.462Z,2.66
2018-11-23T06:28:55.573Z,2.61
2018-11-23T06:31:25.370Z,2.54
2018-11-23T06:33:57.247Z,2.52
2018-11-23T06:36:27.499Z,2.48
2018-11-23T06:38:58.613Z,2.44
2018-11-23T06:41:28.426Z,2.35
2018-11-23T06:44:04.661Z,2.29
2018-11-23T06:46:34.217Z,2.29
2018-11-23T06:49:04.405Z,2.23
2018-11-23T06:51:34.606Z,2.19
2018-11-23T06:54:04.453Z,2.18
2018-11-23T06:56:34.751Z,2.18
2018-11-23T06:59:04.672Z,2.15
2018-11-23T07:01:34.482Z,2.13
2018-11-23T07:04:04.471Z,2.10
2018-11-23T07:06:34.377Z,2.11
2018-11-23T07:09:05.548Z,2.12
2018-11-23T07:11:35.884Z,2.14
2018-11-23T07:14:06.192Z,2.16
2018-11-23T07:16:36.056Z,2.18
2018-11-23T07:19:06.621Z,2.19
2018-11-23T07:21:36.842Z,2.20
2018-11-23T07:24:07.002Z,2.23
2018-11-23T07:26:37.046Z,2.25
2018-11-23T07:29:07.730Z,1.68
2018-11-23T07:31:37.754Z,2.23
2018-11-23T07:34:08.055Z,2.19
2018-11-23T07:36:38.225Z,2.14
2018-11-23T07:39:13.495Z,2.15
2018-11-23T07:41:53.776Z,2.19
2018-11-23T07:44:26.076Z,2.14
2018-11-23T07:46:56.215Z,2.15
2018-11-23T07:49:26.614Z,2.18
2018-11-23T07:51:56.361Z,2.24
2018-11-23T07:54:26.026Z,2.31
2018-11-23T07:57:01.152Z,2.36
2018-11-23T07:59:31.262Z,2.40
2018-11-23T08:02:01.168Z,2.39
2018-11-23T08:04:31.447Z,2.37
2018-11-23T08:07:01.106Z,2.39
2018-11-23T08:09:31.566Z,2.45
2018-11-23T08:12:01.978Z,2.52
2018-11-23T08:14:31.816Z,2.61
2018-11-23T08:17:02.057Z,2.07
2018-11-23T08:19:33.224Z,2.01
2018-11-23T08:22:03.803Z,2.79
2018-11-23T08:24:33.918Z,2.84
2018-11-23T08:27:04.046Z,2.90
2018-11-23T08:29:34.008Z,2.30
2018-11-23T08:32:03.869Z,2.98
2018-11-23T08:34:35.379Z,3.06
2018-11-23T08:37:05.147Z,3.14
2018-11-23T08:39:36.694Z,3.21
2018-11-23T08:42:07.109Z,3.30
2018-11-23T08:44:37.528Z,3.35
2018-11-23T08:47:07.718Z,3.44
2018-11-23T08:49:38.420Z,3.56
2018-11-23T08:52:08.195Z,3.60
2018-11-23T08:54:38.224Z,3.67
2018-11-23T08:57:08.431Z,3.73
2018-11-23T08:59:38.685Z,3.69
2018-11-23T09:02:08.313Z,3.67
2018-11-23T09:04:38.978Z,3.75
2018-11-23T09:07:08.770Z,3.83
2018-11-23T09:09:39.432Z,3.88
2018-11-23T09:12:09.516Z,3.93
2018-11-23T09:14:41.878Z,3.99
2018-11-23T09:17:12.269Z,4.05
2018-11-23T09:19:44.824Z,4.16
2018-11-23T09:22:14.834Z,4.25
2018-11-23T09:24:45.530Z,4.29
2018-11-23T09:27:15.520Z,4.33
2018-11-23T09:29:45.231Z,4.40
2018-11-23T09:32:15.195Z,3.72
2018-11-23T09:34:45.607Z,4.48
2018-11-23T09:37:15.195Z,4.51
2018-11-23T09:39:45.838Z,4.62
2018-11-23T09:42:16.089Z,4.70
2018-11-23T09:44:46.051Z,4.79
2018-11-23T09:47:16.365Z,4.79
2018-11-23T09:49:46.541Z,4.27
2018-11-23T09:52:19.720Z,4.80
2018-11-23T09:54:49.672Z,4.72
2018-11-23T09:57:19.564Z,4.78
2018-11-23T09:59:49.362Z,4.77
2018-11-23T10:02:19.335Z,4.29
2018-11-23T10:04:49.287Z,4.84
2018-11-23T10:07:19.186Z,4.28
2018-11-23T10:09:50.077Z,4.99
2018-11-23T10:12:19.538Z,5.16
2018-11-23T10:14:49.280Z,5.31
2018-11-23T10:17:18.815Z,5.40
2018-11-23T10:19:49.652Z,5.50
2018-11-23T10:22:19.763Z,5.38
2018-11-23T10:24:49.467Z,5.72
2018-11-23T10:27:19.761Z,5.74
2018-11-23T10:29:55.140Z,5.78
2018-11-23T10:32:21.052Z,5.72
2018-11-23T10:34:51.553Z,5.66
2018-11-23T10:37:22.279Z,5.68
2018-11-23T10:39:52.491Z,5.75
2018-11-23T10:42:22.655Z,5.79
2018-11-23T10:44:52.758Z,5.82
2018-11-23T10:47:22.788Z,5.87
2018-11-23T10:49:53.187Z,5.77
2018-11-23T10:52:23.424Z,5.78
2018-11-23T10:54:53.347Z,5.82
2018-11-23T10:57:24.210Z,5.82
2018-11-23T10:59:54.159Z,5.84
2018-11-23T11:04:32.365Z,5.91
2018-11-23T11:07:09.884Z,6.11
2018-11-23T11:09:40.357Z,6.13
2018-11-23T11:12:09.968Z,6.05
2018-11-23T11:14:40.535Z,6.08
2018-11-23T11:17:10.498Z,6.12
2018-11-23T11:19:40.584Z,6.22
2018-11-23T11:22:10.499Z,6.22
2018-11-23T11:24:40.794Z,6.25
2018-11-23T11:27:10.817Z,6.24
2018-11-23T11:29:40.846Z,6.24
2018-11-23T11:32:11.077Z,6.25
2018-11-23T11:34:41.670Z,6.35
2018-11-23T11:37:11.427Z,6.37
2018-11-23T11:39:41.642Z,6.37
2018-11-23T11:42:11.570Z,6.40
2018-11-23T11:44:41.979Z,6.44
2018-11-23T11:47:12.114Z,6.46
2018-11-23T11:49:41.842Z,6.50
2018-11-23T11:52:11.497Z,6.53
2018-11-23T11:54:41.474Z,6.45
2018-11-23T11:57:11.847Z,6.44
2018-11-23T11:59:41.643Z,6.30
2018-11-23T12:02:15.160Z,6.31
2018-11-23T12:04:45.176Z,6.41
2018-11-23T12:07:15.037Z,6.38
2018-11-23T12:09:44.970Z,6.47
2018-11-23T12:12:14.597Z,6.53
2018-11-23T12:14:44.576Z,6.55
2018-11-23T12:17:14.161Z,6.60
2018-11-23T12:19:43.700Z,6.58
2018-11-23T12:22:14.340Z,6.54
2018-11-23T12:24:43.901Z,6.46
2018-11-23T12:27:13.366Z,6.47
2018-11-23T12:29:43.659Z,6.44
2018-11-23T12:32:13.162Z,6.43
2018-11-23T12:34:42.677Z,6.41
2018-11-23T12:37:12.512Z,6.37
2018-11-23T12:39:42.023Z,6.37
2018-11-23T12:42:12.371Z,6.31
2018-11-23T12:44:41.927Z,6.28
2018-11-23T12:47:12.018Z,6.26
2018-11-23T12:49:42.151Z,6.21
2018-11-23T12:52:11.711Z,6.15
2018-11-23T12:54:42.334Z,6.13
2018-11-23T12:57:13.298Z,6.09
2018-11-23T12:59:42.643Z,6.08
2018-11-23T13:02:12.143Z,6.18
2018-11-23T13:04:41.661Z,6.13
2018-11-23T13:07:12.890Z,6.04
2018-11-23T13:09:43.122Z,6.03
2018-11-23T13:12:13.258Z,6.00
2018-11-23T13:14:43.015Z,6.09
2018-11-23T13:17:14.979Z,6.14
2018-11-23T13:19:45.391Z,6.03
2018-11-23T13:22:19.291Z,6.13
2018-11-23T13:24:52.430Z,6.08
2018-11-23T13:27:22.539Z,6.04
2018-11-23T13:29:55.335Z,6.00
2018-11-23T13:32:25.562Z,5.86
2018-11-23T13:34:56.730Z,5.83
2018-11-23T13:37:29.209Z,5.81
2018-11-23T13:40:00.598Z,5.75
2018-11-23T13:42:34.122Z,5.80
2018-11-23T13:45:05.093Z,5.80
2018-11-23T13:47:35.923Z,5.75
2018-11-23T13:50:07.803Z,5.74
2018-11-23T13:52:38.586Z,5.75
2018-11-23T13:55:09.147Z,5.71
2018-11-23T13:57:39.456Z,5.30
2018-11-23T14:00:14.419Z,5.75
2018-11-23T14:02:44.949Z,5.68
2018-11-23T14:05:18.521Z,5.64
2018-11-23T14:07:51.120Z,5.60
2018-11-23T14:10:27.301Z,5.61
2018-11-23T14:12:59.026Z,5.58
2018-11-23T14:15:36.190Z,5.54
2018-11-23T14:18:06.915Z,5.52
2018-11-23T14:20:38.344Z,5.50
2018-11-23T14:23:09.196Z,5.45
2018-11-23T14:25:38.974Z,5.42
2018-11-23T14:28:09.321Z,5.42
2018-11-23T14:30:39.392Z,5.41
2018-11-23T14:33:10.324Z,5.39
2018-11-23T14:35:40.317Z,5.38
2018-11-23T14:38:11.342Z,5.36
2018-11-23T14:40:40.919Z,5.32
2018-11-23T14:43:11.132Z,5.29
2018-11-23T14:45:41.744Z,5.25
2018-11-23T14:48:14.008Z,5.22
2018-11-23T14:50:52.768Z,5.22
2018-11-23T14:53:23.344Z,5.23
2018-11-23T14:55:58.319Z,5.17
2018-11-23T14:58:30.933Z,5.15
2018-11-23T15:01:04.885Z,5.14
2018-11-23T15:03:41.580Z,4.49
2018-11-23T15:06:12.541Z,4.45
2018-11-23T15:08:42.459Z,5.02
2018-11-23T15:11:13.574Z,5.04
2018-11-23T15:13:43.294Z,5.03
2018-11-23T15:16:20.574Z,5.05
2018-11-23T15:18:51.516Z,5.06
2018-11-23T15:21:22.806Z,5.08
2018-11-23T15:23:52.676Z,5.10
2018-11-23T15:26:23.532Z,5.07
2018-11-23T15:28:54.692Z,5.07
2018-11-23T15:31:25.198Z,5.09
2018-11-23T15:33:55.699Z,5.10
2018-11-23T15:36:25.784Z,4.47
2018-11-23T15:38:56.842Z,5.05
2018-11-23T15:41:28.505Z,5.10
2018-11-23T15:43:58.648Z,5.07
2018-11-23T15:46:29.010Z,5.02
2018-11-23T15:48:59.596Z,5.07
2018-11-23T15:51:29.355Z,5.05
2018-11-23T15:54:00.155Z,5.06
2018-11-23T15:56:31.133Z,5.01
2018-11-23T15:59:01.093Z,5.00
2018-11-23T16:01:31.887Z,5.04
2018-11-23T16:04:03.127Z,5.08
2018-11-23T16:06:35.711Z,5.08
2018-11-23T16:09:10.976Z,5.15
2018-11-23T16:11:42.356Z,5.17
2018-11-23T16:14:14.220Z,5.14
2018-11-23T16:16:44.302Z,5.12
2018-11-23T16:19:14.440Z,5.13
2018-11-23T16:21:44.908Z,5.15
2018-11-23T16:24:14.965Z,5.17
2018-11-23T16:26:46.455Z,5.18
2018-11-23T16:29:17.101Z,5.18
2018-11-23T16:31:47.360Z,5.23
2018-11-23T16:34:18.639Z,5.29
2018-11-23T16:36:49.284Z,5.33
2018-11-23T16:39:19.622Z,5.37
2018-11-23T16:41:50.324Z,5.36
2018-11-23T16:44:22.118Z,5.34
2018-11-23T16:46:53.321Z,5.34
2018-11-23T16:49:25.097Z,5.34
2018-11-23T16:51:56.085Z,5.33
2018-11-23T16:54:26.761Z,5.36
2018-11-23T16:56:56.869Z,5.34
2018-11-23T16:59:26.674Z,5.34
2018-11-23T17:01:56.897Z,5.34
2018-11-23T17:04:29.144Z,5.32
2018-11-23T17:06:59.325Z,5.27
2018-11-23T17:09:33.006Z,5.33
2018-11-23T17:12:02.921Z,5.34
2018-11-23T17:14:33.989Z,5.34
2018-11-23T17:17:04.269Z,5.33
2018-11-23T17:19:35.109Z,5.36
2018-11-23T17:22:07.277Z,5.36
2018-11-23T17:24:37.746Z,5.38
2018-11-23T17:27:08.206Z,5.45
2018-11-23T17:29:38.804Z,5.50
2018-11-23T17:32:09.432Z,5.51
2018-11-23T17:34:42.151Z,5.48
2018-11-23T17:37:12.913Z,5.46
2018-11-23T17:39:42.648Z,5.46
2018-11-23T17:42:13.239Z,5.47
2018-11-23T17:44:44.096Z,5.48
2018-11-23T17:47:16.635Z,5.45
2018-11-23T17:49:46.472Z,5.46
2018-11-23T17:52:17.984Z,5.42
2018-11-23T17:54:48.374Z,5.41
2018-11-23T17:57:18.714Z,5.42
2018-11-23T17:59:53.064Z,5.38
2018-11-23T18:02:27.895Z,5.37
2018-11-23T18:04:59.410Z,5.38
2018-11-23T18:07:31.411Z,5.38
2018-11-23T18:10:01.352Z,5.36
2018-11-23T18:12:31.513Z,5.37
2018-11-23T18:15:01.954Z,5.34
2018-11-23T18:17:31.537Z,5.31
2018-11-23T18:20:01.616Z,5.33
2018-11-23T18:22:31.637Z,5.32
2018-11-23T18:25:01.294Z,5.36
2018-11-23T18:27:31.805Z,5.32
2018-11-23T18:30:01.995Z,5.32
2018-11-23T18:32:32.098Z,5.31
2018-11-23T18:35:02.751Z,5.32
2018-11-23T18:37:32.647Z,5.32
2018-11-23T18:40:02.492Z,5.31
2018-11-23T18:42:33.098Z,5.34
2018-11-23T18:45:04.300Z,5.35
2018-11-23T18:47:34.292Z,5.33
2018-11-23T18:50:05.632Z,5.30
2018-11-23T18:52:35.312Z,5.30
2018-11-23T18:55:05.253Z,5.28
2018-11-23T18:57:37.481Z,5.30
2018-11-23T19:00:10.766Z,5.28
2018-11-23T19:02:40.955Z,5.22
2018-11-23T19:05:13.377Z,5.22
2018-11-23T19:07:43.142Z,5.28
2018-11-23T19:10:14.530Z,5.32
2018-11-23T19:12:44.384Z,5.30
2018-11-23T19:15:16.171Z,5.30
2018-11-23T19:17:46.410Z,5.32
2018-11-23T19:20:19.912Z,5.36
2018-11-23T19:22:50.651Z,5.42
2018-11-23T19:25:21.440Z,5.44
2018-11-23T19:27:52.111Z,5.43
2018-11-23T19:30:28.022Z,5.39
2018-11-23T19:32:54.420Z,5.39
2018-11-23T19:35:24.356Z,5.40
2018-11-23T19:37:54.400Z,5.41
2018-11-23T19:40:24.063Z,4.83
2018-11-23T19:42:54.749Z,5.42
2018-11-23T19:45:24.821Z,5.42
2018-11-23T19:47:54.489Z,5.45
2018-11-23T19:50:24.138Z,5.47
2018-11-23T19:52:54.950Z,5.48
2018-11-23T19:55:24.889Z,5.46
2018-11-23T19:57:54.464Z,5.46
2018-11-23T20:00:26.710Z,5.43
2018-11-23T20:02:57.744Z,5.37
2018-11-23T20:05:28.506Z,5.36
2018-11-23T20:07:58.929Z,5.34
2018-11-23T20:10:29.456Z,5.34
2018-11-23T20:13:03.496Z,4.75
2018-11-23T20:15:34.825Z,5.38
2018-11-23T20:18:08.133Z,5.40
2018-11-23T20:20:39.109Z,5.41
2018-11-23T20:23:09.102Z,5.41
2018-11-23T20:25:39.012Z,5.42
2018-11-23T20:28:09.815Z,5.42
2018-11-23T20:30:42.439Z,5.40
2018-11-23T20:33:12.708Z,5.34
2018-11-23T20:35:43.918Z,5.29
2018-11-23T20:38:13.706Z,5.31
2018-11-23T20:40:43.885Z,5.33
2018-11-23T20:43:14.064Z,5.36
2018-11-23T20:45:43.776Z,5.39
2018-11-23T20:48:14.177Z,5.38
2018-11-23T20:50:44.279Z,5.38
2018-11-23T20:53:14.896Z,5.39
2018-11-23T20:55:45.309Z,5.38
2018-11-23T20:58:18.689Z,5.33
2018-11-23T21:00:48.396Z,5.31
2018-11-23T21:03:18.415Z,5.29
2018-11-23T21:05:48.431Z,5.30
2018-11-23T21:08:20.051Z,5.31
2018-11-23T21:10:49.887Z,5.34
2018-11-23T21:13:20.047Z,5.36
2018-11-23T21:15:49.887Z,5.38
2018-11-23T21:18:20.397Z,5.32
2018-11-23T21:20:50.851Z,5.31
2018-11-23T21:23:21.017Z,5.27
2018-11-23T21:25:51.104Z,5.28
2018-11-23T21:28:23.179Z,4.17
2018-11-23T21:30:54.260Z,5.34
2018-11-23T21:33:24.823Z,5.39
2018-11-23T21:35:54.909Z,5.38
2018-11-23T21:38:25.579Z,5.41
2018-11-23T21:40:56.915Z,5.40
2018-11-23T21:43:27.445Z,5.42
2018-11-23T21:45:58.304Z,5.46
2018-11-23T21:48:28.219Z,5.48
2018-11-23T21:50:57.933Z,5.44
2018-11-23T21:53:28.645Z,5.42
2018-11-23T21:55:59.170Z,5.42
2018-11-23T21:58:30.911Z,5.40
2018-11-23T22:01:01.619Z,5.37
2018-11-23T22:03:32.262Z,5.35
2018-11-23T22:06:04.921Z,5.31
2018-11-23T22:08:35.242Z,5.31
2018-11-23T22:11:06.609Z,5.34
2018-11-23T22:13:36.989Z,5.34
2018-11-23T22:16:07.988Z,5.31
2018-11-23T22:18:38.457Z,5.27
2018-11-23T22:21:08.834Z,5.25
2018-11-23T22:23:38.424Z,5.22
2018-11-23T22:26:08.830Z,5.19
2018-11-23T22:28:39.029Z,5.21
2018-11-23T22:31:08.972Z,5.25
2018-11-23T22:33:39.235Z,5.25
2018-11-23T22:36:08.934Z,5.25
2018-11-23T22:38:39.054Z,5.24
2018-11-23T22:41:09.268Z,5.21
2018-11-23T22:43:39.235Z,5.18
2018-11-23T22:46:09.768Z,5.17
2018-11-23T22:48:39.862Z,5.22
2018-11-23T22:51:09.515Z,5.21
2018-11-23T22:53:39.501Z,5.22
2018-11-23T22:56:10.033Z,5.23
2018-11-23T22:58:40.324Z,5.22
2018-11-23T23:01:10.485Z,5.23
2018-11-23T23:03:41.740Z,5.22
2018-11-23T23:06:12.375Z,5.27
2018-11-23T23:08:42.466Z,5.25
2018-11-23T23:11:12.724Z,5.25
2018-11-23T23:13:42.991Z,5.23
2018-11-23T23:16:14.078Z,5.22
2018-11-23T23:18:44.700Z,5.22
2018-11-23T23:21:14.763Z,5.17
2018-11-23T23:23:44.570Z,5.20
2018-11-23T23:26:14.642Z,5.20
2018-11-23T23:28:45.097Z,5.18
2018-11-23T23:31:14.925Z,5.20
2018-11-23T23:33:45.239Z,5.18
2018-11-23T23:36:15.463Z,5.19
2018-11-23T23:38:45.358Z,5.20
2018-11-23T23:41:16.158Z,5.18
2018-11-23T23:43:45.937Z,5.17
2018-11-23T23:46:46.365Z,5.15
2018-11-23T23:49:17.361Z,5.12
2018-11-23T23:51:47.193Z,5.13
2018-11-23T23:54:17.951Z,5.17
2018-11-23T23:56:47.631Z,5.20
2018-11-23T23:59:17.352Z,5.23
